Pays
Station

 

Conditions  météo  pour  Marfa  -  Etats-Unis    Etats-Unis

  
16 °C
    
 
 

METAR pour Marfa :

KMRF 212256Z AUTO 14007KT 10SM 16/06 A3028 RMK AO2 SLP221 T01560061 $

 

Voici le bulletin pour Marfa - Etats-Unis.
 
Le bulletin a été fait il y a 5 minutes, à 22:56 UTC .
Le vent soufflait à la vitesse de 3.6 mètres par seconde de Sud-est (140°).
 
La température était de 16 °C, avec un point de rosée à 6 °C.
La pression atmosphérique était de 1025 hPa.
L'humidité relative était de 51.4%.
 
La visibilité globale était de 16.1 kilomètres.
 

 
 
 

Pays :   A   B   C   D   E   F   G   H   I   J   K   L   M   N   O   P   Q   R   S   T   U   V   W   Y   Z

 

Partenaires :  Info Météo avec Met'info
Météo Marine avec MeteoMarine.net
Infos Site  |  Infos Légales  |  Crédits  |  Confidentialité
Contactez-nous  |  Ajouter aux favoris
© 2013-2018 METAR - Tous droits réservés